createdAt,value
2022-09-15T00:02:14.322Z,15.20
2022-09-15T00:04:41.060Z,15.10
2022-09-15T00:07:08.050Z,15.10
2022-09-15T00:12:02.992Z,15.00
2022-09-15T00:14:29.619Z,15.00
2022-09-15T00:16:56.261Z,14.90
2022-09-15T00:26:44.318Z,15.10
2022-09-15T00:29:11.479Z,15.10
2022-09-15T00:31:38.351Z,14.90
2022-09-15T00:34:05.178Z,15.00
2022-09-15T00:36:32.541Z,15.00
2022-09-15T00:38:59.360Z,15.10
2022-09-15T00:44:00.432Z,15.00
2022-09-15T00:46:31.383Z,15.00
2022-09-15T00:49:24.015Z,14.90
2022-09-15T00:51:56.611Z,14.80
2022-09-15T00:54:31.586Z,14.80
2022-09-15T00:57:02.774Z,14.70
2022-09-15T00:59:33.242Z,14.60
2022-09-15T01:02:17.582Z,14.50
2022-09-15T01:07:15.716Z,14.50
2022-09-15T01:12:14.058Z,14.40
2022-09-15T01:17:13.612Z,14.30
2022-09-15T01:20:13.477Z,14.30
2022-09-15T01:23:05.992Z,14.50
2022-09-15T01:28:48.887Z,14.50
2022-09-15T01:31:21.205Z,14.50
2022-09-15T01:36:25.088Z,14.60
2022-09-15T01:39:13.098Z,14.50
2022-09-15T01:42:00.046Z,14.50
2022-09-15T01:44:37.398Z,14.50
2022-09-15T01:47:09.400Z,14.40
2022-09-15T01:49:46.582Z,14.50
2022-09-15T01:54:48.811Z,14.40
2022-09-15T01:57:21.862Z,14.40
2022-09-15T02:04:52.846Z,14.30
2022-09-15T02:17:54.206Z,14.30
2022-09-15T02:20:34.447Z,14.30
2022-09-15T02:23:08.363Z,14.40
2022-09-15T02:28:08.483Z,14.40
2022-09-15T02:30:41.180Z,14.50
2022-09-15T02:35:38.649Z,14.60
2022-09-15T02:40:34.196Z,14.60
2022-09-15T02:43:02.458Z,14.50
2022-09-15T02:52:55.595Z,14.20
2022-09-15T02:55:22.754Z,14.10
2022-09-15T03:00:17.510Z,13.90
2022-09-15T03:07:41.318Z,13.80
2022-09-15T03:10:10.307Z,13.80
2022-09-15T03:15:05.652Z,13.70
2022-09-15T03:17:41.398Z,13.60
2022-09-15T03:25:05.493Z,13.60
2022-09-15T03:27:34.071Z,13.60
2022-09-15T03:34:58.502Z,13.30
2022-09-15T03:42:20.303Z,13.40
2022-09-15T03:47:14.104Z,13.40
2022-09-15T03:52:07.812Z,13.30
2022-09-15T03:54:35.383Z,13.30
2022-09-15T03:57:02.260Z,13.30
2022-09-15T04:06:50.316Z,13.20
2022-09-15T04:09:17.055Z,13.20
2022-09-15T04:14:10.760Z,13.30
2022-09-15T04:19:04.685Z,13.30
2022-09-15T04:21:32.009Z,13.30
2022-09-15T04:23:58.879Z,13.30
2022-09-15T04:33:59.423Z,13.30
2022-09-15T04:36:28.154Z,13.30
2022-09-15T04:38:55.318Z,13.40
2022-09-15T04:41:22.513Z,13.40
2022-09-15T04:43:49.886Z,13.40
2022-09-15T04:46:18.326Z,13.40
2022-09-15T04:48:46.098Z,13.50
2022-09-15T04:51:16.874Z,13.50
2022-09-15T04:53:44.446Z,13.50
2022-09-15T04:56:13.467Z,13.60
2022-09-15T04:58:43.285Z,13.60
2022-09-15T05:01:15.186Z,13.60
2022-09-15T05:03:43.123Z,13.60
2022-09-15T05:06:13.584Z,13.70
2022-09-15T05:13:37.087Z,13.90
2022-09-15T05:16:13.281Z,13.90
2022-09-15T05:21:09.563Z,13.90
2022-09-15T05:23:37.077Z,14.00
2022-09-15T05:33:28.061Z,14.50
2022-09-15T05:35:58.937Z,14.10
2022-09-15T05:40:53.245Z,14.10
2022-09-15T05:45:54.916Z,14.20
2022-09-15T05:50:53.517Z,14.20
2022-09-15T05:53:21.033Z,14.30
2022-09-15T05:55:47.942Z,14.30
2022-09-15T05:58:14.957Z,14.30
2022-09-15T06:00:42.438Z,14.40
2022-09-15T06:03:15.398Z,14.40
2022-09-15T06:05:42.927Z,14.50
2022-09-15T06:08:09.616Z,14.60
2022-09-15T06:10:36.585Z,14.60
2022-09-15T06:13:03.221Z,14.60
2022-09-15T06:15:30.707Z,14.70
2022-09-15T06:17:57.452Z,14.70
2022-09-15T06:20:27.961Z,14.70
2022-09-15T06:27:50.611Z,14.80
2022-09-15T06:32:48.028Z,14.90
2022-09-15T06:35:15.522Z,14.90
2022-09-15T06:37:43.087Z,15.00
2022-09-15T06:40:10.356Z,15.10
2022-09-15T06:42:37.052Z,15.20
2022-09-15T06:47:33.969Z,15.30
2022-09-15T06:52:28.217Z,15.40
2022-09-15T07:04:43.364Z,16.10
2022-09-15T07:09:39.867Z,16.40
2022-09-15T07:12:08.111Z,16.40
2022-09-15T07:14:34.724Z,16.30
2022-09-15T07:17:01.390Z,16.30
2022-09-15T07:19:28.004Z,16.40
2022-09-15T07:24:21.665Z,16.40
2022-09-15T07:26:48.336Z,16.40
2022-09-15T07:31:42.051Z,16.50
2022-09-15T07:36:36.503Z,16.60
2022-09-15T07:39:04.653Z,16.60
2022-09-15T07:41:32.665Z,16.70
2022-09-15T07:44:00.553Z,16.90
2022-09-15T07:46:29.905Z,17.00
2022-09-15T07:48:57.388Z,17.10
2022-09-15T07:51:25.286Z,17.20
2022-09-15T07:53:52.585Z,17.40
2022-09-15T07:58:48.292Z,17.60
2022-09-15T08:01:16.310Z,17.50
2022-09-15T08:03:45.298Z,17.60
2022-09-15T08:06:13.466Z,17.50
2022-09-15T08:08:41.427Z,17.40
2022-09-15T08:11:09.321Z,17.40
2022-09-15T08:16:11.639Z,17.30
2022-09-15T08:18:39.862Z,17.40
2022-09-15T08:21:07.929Z,17.50
2022-09-15T08:23:34.864Z,17.60
2022-09-15T08:26:01.548Z,17.70
2022-09-15T08:31:03.156Z,17.80
2022-09-15T08:33:30.199Z,17.80
2022-09-15T08:36:05.554Z,18.00
2022-09-15T08:38:32.946Z,18.20
2022-09-15T08:41:03.131Z,18.10
2022-09-15T08:43:38.244Z,18.30
2022-09-15T08:46:09.600Z,18.50
2022-09-15T08:48:45.393Z,18.30
2022-09-15T08:51:23.181Z,18.50
2022-09-15T08:54:00.995Z,18.40
2022-09-15T08:56:29.515Z,18.30
2022-09-15T08:58:56.183Z,18.10
2022-09-15T09:02:00.168Z,18.10
2022-09-15T09:05:10.382Z,18.30
2022-09-15T09:07:52.293Z,18.30
2022-09-15T09:10:32.387Z,18.50
2022-09-15T09:13:07.345Z,18.50
2022-09-15T09:15:40.218Z,18.50
2022-09-15T09:18:31.717Z,18.70
2022-09-15T09:21:09.085Z,18.50
2022-09-15T09:23:48.420Z,18.70
2022-09-15T09:26:15.583Z,18.70
2022-09-15T09:28:47.667Z,19.00
2022-09-15T09:31:21.364Z,19.10
2022-09-15T09:34:26.102Z,19.00
2022-09-15T09:36:59.079Z,19.10
2022-09-15T09:39:27.547Z,19.20
2022-09-15T09:41:55.069Z,19.30
2022-09-15T09:44:31.617Z,19.30
2022-09-15T09:46:59.814Z,19.50
2022-09-15T09:49:34.370Z,19.70
2022-09-15T09:52:03.573Z,19.80
2022-09-15T09:54:32.959Z,19.60
2022-09-15T09:57:22.856Z,19.30
2022-09-15T09:59:50.990Z,19.10
2022-09-15T10:02:25.912Z,18.80
2022-09-15T10:07:23.555Z,18.40
2022-09-15T10:09:58.635Z,18.20
2022-09-15T10:12:32.809Z,18.20
2022-09-15T10:15:06.447Z,18.20
2022-09-15T10:17:36.103Z,18.10
2022-09-15T10:20:07.372Z,18.10
2022-09-15T10:22:37.420Z,18.10
2022-09-15T10:25:39.424Z,18.20
2022-09-15T10:28:14.416Z,18.70
2022-09-15T10:30:59.772Z,19.10
2022-09-15T10:33:30.991Z,19.40
2022-09-15T10:36:04.168Z,19.80
2022-09-15T10:38:51.117Z,20.10
2022-09-15T10:41:30.978Z,20.20
2022-09-15T10:44:28.611Z,20.30
2022-09-15T10:47:18.187Z,20.10
2022-09-15T10:50:03.391Z,20.20
2022-09-15T10:52:45.445Z,20.30
2022-09-15T10:55:51.160Z,20.30
2022-09-15T10:58:51.057Z,20.20
2022-09-15T11:01:29.896Z,20.10
2022-09-15T11:06:29.619Z,20.60
2022-09-15T11:09:08.791Z,20.60
2022-09-15T11:11:51.420Z,20.50
2022-09-15T11:14:51.952Z,20.40
2022-09-15T11:17:53.211Z,20.50
2022-09-15T11:20:49.507Z,20.90
2022-09-15T11:23:19.049Z,21.00
2022-09-15T11:25:50.783Z,20.90
2022-09-15T11:28:31.669Z,20.70
2022-09-15T11:33:34.414Z,20.30
2022-09-15T11:36:09.516Z,20.00
2022-09-15T11:38:57.750Z,20.00
2022-09-15T11:41:33.424Z,19.70
2022-09-15T11:44:25.140Z,19.60
2022-09-15T11:47:15.437Z,19.90
2022-09-15T11:49:46.214Z,19.80
2022-09-15T11:52:42.007Z,19.60
2022-09-15T11:55:36.000Z,19.30
2022-09-15T11:58:22.486Z,19.30
2022-09-15T12:01:00.902Z,19.30
2022-09-15T12:03:36.433Z,19.50
2022-09-15T12:06:26.748Z,19.80
2022-09-15T12:08:58.530Z,20.10
2022-09-15T12:11:28.447Z,20.40
2022-09-15T12:16:24.070Z,20.60
2022-09-15T12:19:04.396Z,20.50
2022-09-15T12:21:43.136Z,20.60
2022-09-15T12:24:26.936Z,20.60
2022-09-15T12:26:53.625Z,20.70
2022-09-15T12:29:26.504Z,21.00
2022-09-15T12:32:22.242Z,20.70
2022-09-15T12:35:00.616Z,20.90
2022-09-15T12:37:35.125Z,21.00
2022-09-15T12:42:31.385Z,21.00
2022-09-15T12:45:06.038Z,20.80
2022-09-15T12:47:52.930Z,20.70
2022-09-15T12:52:58.159Z,20.60
2022-09-15T12:55:29.052Z,20.30
2022-09-15T12:58:09.183Z,20.20
2022-09-15T13:00:42.378Z,20.30
2022-09-15T13:06:21.212Z,20.60
2022-09-15T13:09:00.912Z,20.80
2022-09-15T13:11:39.482Z,20.90
2022-09-15T13:16:58.377Z,20.60
2022-09-15T13:22:16.527Z,20.40
2022-09-15T13:24:45.900Z,20.40
2022-09-15T13:27:14.802Z,20.40
2022-09-15T13:29:52.252Z,20.20
2022-09-15T13:32:40.413Z,20.20
2022-09-15T13:35:35.654Z,20.00
2022-09-15T13:38:43.121Z,19.90
2022-09-15T13:41:16.424Z,19.90
2022-09-15T13:44:08.533Z,19.60
2022-09-15T13:47:05.328Z,19.70
2022-09-15T13:49:52.074Z,19.40
2022-09-15T13:55:26.167Z,19.20
2022-09-15T14:00:53.541Z,18.90
2022-09-15T14:03:42.872Z,18.80
2022-09-15T14:06:21.068Z,18.70
2022-09-15T14:08:52.819Z,18.70
2022-09-15T14:11:27.979Z,18.60
2022-09-15T14:13:55.826Z,18.60
2022-09-15T14:16:35.896Z,18.60
2022-09-15T14:19:27.627Z,18.90
2022-09-15T14:21:58.322Z,19.00
2022-09-15T14:24:31.072Z,19.20
2022-09-15T14:27:03.345Z,19.20
2022-09-15T14:32:00.769Z,19.10
2022-09-15T14:34:31.039Z,18.90
2022-09-15T14:37:07.347Z,18.60
2022-09-15T14:39:37.313Z,18.40
2022-09-15T14:42:22.823Z,18.10
2022-09-15T14:47:39.132Z,17.70
2022-09-15T14:50:17.894Z,17.50
2022-09-15T14:52:51.825Z,17.30
2022-09-15T14:55:24.778Z,17.10
2022-09-15T14:58:20.155Z,17.10
2022-09-15T15:01:01.978Z,17.10
2022-09-15T15:03:41.044Z,17.20
2022-09-15T15:06:30.179Z,17.20
2022-09-15T15:09:03.459Z,17.30
2022-09-15T15:11:33.025Z,17.30
2022-09-15T15:14:00.317Z,17.30
2022-09-15T15:16:31.506Z,17.30
2022-09-15T15:18:58.358Z,17.30
2022-09-15T15:21:35.250Z,17.20
2022-09-15T15:24:28.510Z,17.30
2022-09-15T15:29:51.737Z,17.20
2022-09-15T15:32:22.024Z,17.30
2022-09-15T15:35:02.268Z,17.40
2022-09-15T15:37:30.795Z,17.40
2022-09-15T15:40:00.583Z,17.50
2022-09-15T15:45:20.634Z,17.40
2022-09-15T15:47:47.512Z,17.40
2022-09-15T15:50:20.860Z,17.50
2022-09-15T15:52:49.090Z,17.50
2022-09-15T15:55:30.909Z,17.60
2022-09-15T16:00:46.082Z,17.60
2022-09-15T16:03:14.291Z,17.60
2022-09-15T16:05:44.503Z,17.60
2022-09-15T16:08:26.347Z,17.60
2022-09-15T16:10:54.414Z,17.60
2022-09-15T16:13:22.608Z,17.70
2022-09-15T16:20:44.864Z,17.70
2022-09-15T16:23:17.930Z,17.60
2022-09-15T16:25:54.189Z,17.60
2022-09-15T16:28:21.002Z,17.50
2022-09-15T16:33:16.168Z,17.40
2022-09-15T16:35:51.028Z,17.30
2022-09-15T16:38:20.021Z,17.60
2022-09-15T16:40:47.824Z,17.40
2022-09-15T16:43:16.581Z,17.30
2022-09-15T16:45:44.017Z,17.20
2022-09-15T16:50:42.690Z,17.20
2022-09-15T16:53:17.902Z,17.10
2022-09-15T16:55:50.987Z,17.10
2022-09-15T16:58:19.561Z,17.00
2022-09-15T17:00:48.338Z,17.00
2022-09-15T17:03:17.600Z,16.90
2022-09-15T17:05:48.643Z,17.00
2022-09-15T17:08:16.787Z,16.80
2022-09-15T17:10:43.892Z,16.80
2022-09-15T17:13:17.409Z,16.80
2022-09-15T17:18:15.320Z,16.70
2022-09-15T17:20:46.807Z,16.60
2022-09-15T17:23:34.971Z,16.60
2022-09-15T17:26:04.722Z,16.50
2022-09-15T17:28:34.324Z,16.40
2022-09-15T17:31:14.578Z,16.40
2022-09-15T17:33:41.877Z,16.30
2022-09-15T17:36:08.581Z,16.40
2022-09-15T17:41:02.452Z,16.30
2022-09-15T17:43:30.601Z,16.40
2022-09-15T17:50:52.723Z,16.30
2022-09-15T17:53:28.252Z,16.20
2022-09-15T17:55:56.014Z,16.10
2022-09-15T17:58:24.892Z,16.00
2022-09-15T18:00:52.530Z,16.00
2022-09-15T18:03:27.733Z,15.90
2022-09-15T18:05:56.614Z,15.90
2022-09-15T18:08:23.285Z,15.90
2022-09-15T18:13:20.432Z,15.90
2022-09-15T18:15:48.911Z,15.90
2022-09-15T18:18:22.230Z,15.90
2022-09-15T18:23:24.917Z,15.90
2022-09-15T18:25:52.230Z,16.00
2022-09-15T18:28:19.689Z,16.00
2022-09-15T18:30:48.472Z,16.00
2022-09-15T18:33:19.864Z,16.00
2022-09-15T18:40:47.506Z,16.00
2022-09-15T18:43:14.253Z,15.90
2022-09-15T18:45:42.623Z,15.90
2022-09-15T18:48:12.714Z,15.90
2022-09-15T18:50:41.308Z,15.90
2022-09-15T18:58:02.662Z,15.90
2022-09-15T19:02:58.264Z,15.80
2022-09-15T19:10:20.166Z,15.80
2022-09-15T19:12:46.870Z,15.80
2022-09-15T19:15:14.795Z,15.80
2022-09-15T19:17:42.737Z,15.80
2022-09-15T19:20:11.767Z,15.80
2022-09-15T19:25:06.510Z,15.70
2022-09-15T19:27:33.391Z,15.80
2022-09-15T19:30:00.579Z,15.70
2022-09-15T19:32:27.412Z,15.70
2022-09-15T19:34:54.282Z,15.70
2022-09-15T19:37:22.411Z,15.70
2022-09-15T19:39:50.074Z,15.70
2022-09-15T19:42:17.432Z,15.70
2022-09-15T19:44:44.559Z,15.70
2022-09-15T19:52:06.479Z,15.70
2022-09-15T19:54:34.435Z,15.60
2022-09-15T19:57:01.740Z,15.60
2022-09-15T19:59:31.347Z,15.60
2022-09-15T20:04:26.312Z,15.50
2022-09-15T20:14:14.687Z,15.50
2022-09-15T20:21:49.951Z,15.40
2022-09-15T20:24:18.016Z,15.40
2022-09-15T20:26:44.772Z,15.40
2022-09-15T20:29:24.315Z,15.40
2022-09-15T20:31:51.012Z,15.40
2022-09-15T20:36:45.659Z,15.40
2022-09-15T20:39:14.560Z,15.40
2022-09-15T20:41:46.206Z,15.40
2022-09-15T20:44:13.286Z,15.40
2022-09-15T20:49:07.874Z,15.30
2022-09-15T20:51:35.145Z,15.30
2022-09-15T20:54:04.342Z,15.20
2022-09-15T20:56:34.724Z,15.20
2022-09-15T21:01:32.948Z,15.00
2022-09-15T21:03:59.743Z,15.00
2022-09-15T21:06:27.693Z,14.90
2022-09-15T21:08:56.090Z,14.80
2022-09-15T21:11:24.181Z,14.80
2022-09-15T21:16:24.135Z,14.60
2022-09-15T21:21:26.229Z,14.50
2022-09-15T21:23:54.924Z,14.50
2022-09-15T21:26:24.016Z,14.50
2022-09-15T21:28:51.347Z,14.50
2022-09-15T21:31:23.569Z,14.50
2022-09-15T21:33:51.459Z,14.50
2022-09-15T21:36:23.378Z,14.50
2022-09-15T21:38:51.988Z,14.50
2022-09-15T21:41:23.565Z,14.60
2022-09-15T21:43:54.744Z,14.60
2022-09-15T21:46:23.808Z,14.60
2022-09-15T21:48:50.760Z,14.60
2022-09-15T21:51:23.991Z,14.60
2022-09-15T21:53:53.097Z,14.60
2022-09-15T22:03:42.742Z,14.40
2022-09-15T22:06:11.678Z,14.30
2022-09-15T22:08:41.796Z,14.30
2022-09-15T22:11:09.061Z,14.30
2022-09-15T22:13:39.325Z,14.20
2022-09-15T22:16:10.278Z,14.20
2022-09-15T22:18:38.309Z,14.10
2022-09-15T22:21:11.116Z,14.10
2022-09-15T22:23:38.643Z,14.00
2022-09-15T22:26:08.392Z,14.00
2022-09-15T22:31:04.854Z,13.90
2022-09-15T22:33:31.521Z,13.90
2022-09-15T22:35:58.514Z,13.90
2022-09-15T22:38:27.354Z,13.90
2022-09-15T22:40:54.401Z,13.80
2022-09-15T22:45:48.589Z,13.70
2022-09-15T22:50:45.151Z,13.70
2022-09-15T22:53:12.925Z,13.80
2022-09-15T22:58:07.863Z,13.90
2022-09-15T23:00:37.021Z,13.90
2022-09-15T23:05:30.814Z,14.00
2022-09-15T23:10:26.510Z,14.10
2022-09-15T23:12:53.224Z,14.00
2022-09-15T23:17:47.407Z,13.90
2022-09-15T23:27:35.520Z,13.60
2022-09-15T23:30:02.161Z,13.40
2022-09-15T23:34:56.470Z,13.40
2022-09-15T23:37:23.131Z,13.40
2022-09-15T23:39:49.796Z,13.40
2022-09-15T23:42:18.890Z,13.40
2022-09-15T23:49:40.072Z,13.40
2022-09-15T23:52:06.752Z,13.40
